MDT,Max TemperatureF,Mean TemperatureF,Min TemperatureF,Max Dew PointF,MeanDew PointF,Min DewpointF,Max Humidity, Mean Humidity, Min Humidity, Max Sea Level PressureIn, Mean Sea Level PressureIn, Min Sea Level PressureIn, Max VisibilityMiles, Mean VisibilityMiles, Min VisibilityMiles, Max Wind SpeedMPH, Mean Wind SpeedMPH, Max Gust SpeedMPH,PrecipitationIn, CloudCover, Events, WindDirDegrees
2014-4-1,57,39,20,27,23,17,84,57,30,30.08,29.94,29.79,10,10,10,31,15,38,0.00,0,,138
2014-4-2,57,43,29,33,28,23,89,65,41,29.82,29.77,29.67,10,10,7,23,13,27,0.00,4,,89
2014-4-3,41,34,26,34,31,24,100,90,79,30.16,29.86,29.72,10,5,0,25,14,31,0.15,7,Fog-Snow,351
2014-4-4,57,40,22,31,26,19,88,59,30,30.17,30.09,30.00,10,10,10,20,11,23,0.00,1,,240
2014-4-5,62,47,32,38,30,25,82,54,26,29.98,29.89,29.82,10,10,10,28,17,36,0.00,0,,191
2014-4-6,64,50,36,38,32,26,100,63,25,29.88,29.82,29.74,10,9,1,31,13,37,0.00,2,,308
2014-4-7,56,41,26,33,28,20,89,61,32,30.17,30.03,29.84,10,10,10,40,18,52,0.01,3,,337
2014-4-8,70,49,27,30,27,21,81,51,20,30.18,30.11,30.02,10,10,10,23,13,31,0.00,2,,292
2014-4-9,84,62,40,31,24,13,58,33,8,30.01,29.84,29.69,10,10,10,22,12,32,0.00,0,,251
2014-4-10,65,54,43,35,32,21,70,47,24,30.08,29.92,29.68,10,10,10,26,12,32,0.00,0,,59
2014-4-11,79,59,39,38,35,31,79,49,19,30.03,29.85,29.65,10,10,10,29,16,36,0.00,0,,181
2014-4-12,82,66,49,40,33,26,59,37,14,29.64,29.56,29.50,10,10,10,23,13,28,0.00,0,,359
2014-4-13,54,40,25,34,28,23,100,72,43,30.22,29.92,29.55,10,5,1,36,26,41,0.04,8,Snow,1
2014-4-14,42,33,24,24,19,14,88,59,30,30.38,30.29,30.19,10,9,2,29,17,35,T,3,Snow,322
2014-4-15,66,46,25,26,20,15,68,42,16,30.25,29.92,29.59,10,10,10,24,16,31,0.00,0,,213
2014-4-16,60,49,37,34,30,24,79,54,28,30.13,29.85,29.56,10,10,10,43,20,53,0.00,1,,357
2014-4-17,54,42,30,38,33,28,92,73,54,30.29,30.20,30.14,10,9,5,24,14,30,0.00,6,,141
2014-4-18,76,55,33,43,38,31,96,62,27,30.14,29.97,29.85,10,10,6,31,22,37,0.00,0,,178
2014-4-19,72,60,47,50,46,42,86,64,41,30.01,29.89,29.76,10,10,10,26,15,32,T,1,Rain-Thunderstorm,68
2014-4-20,75,59,42,51,45,42,100,67,33,30.01,29.95,29.85,10,6,0,15,4,18,0.00,1,Fog,8
2014-4-21,71,57,42,44,32,26,93,57,20,30.19,30.11,29.97,10,10,10,23,12,30,0.00,0,,56
2014-4-22,82,62,42,48,38,26,72,48,24,30.14,29.87,29.63,10,10,10,38,25,46,0.00,0,,171
2014-4-23,85,68,51,47,38,23,67,40,12,29.74,29.53,29.39,10,10,7,41,23,51,0.00,1,Thunderstorm,275
2014-4-24,68,56,44,35,20,11,65,38,11,29.91,29.84,29.71,10,10,10,41,16,55,0.00,1,,312
2014-4-25,78,56,33,29,24,17,52,33,13,29.86,29.76,29.56,10,10,10,22,10,28,0.00,0,,174
2014-4-26,86,66,45,40,28,17,71,40,8,29.54,29.33,29.16,10,10,10,30,16,37,0.00,0,,188
2014-4-27,64,51,38,41,33,18,92,55,17,29.50,29.25,29.04,10,8,0,53,22,64,0.21,5,Rain,299
2014-4-28,57,48,39,37,32,24,92,61,30,29.77,29.60,29.47,10,10,10,49,30,60,T,5,,325
2014-4-29,48,41,34,36,33,29,100,77,53,30.20,29.97,29.76,10,10,7,46,30,58,0.02,8,Rain-Snow,347
2014-4-30,56,45,33,29,25,19,82,53,24,30.23,30.19,30.12,10,10,10,39,24,47,T,5,,336